createdAt,value
2018-02-21T00:00:49.972Z,102023.77
2018-02-21T00:03:25.051Z,102018.83
2018-02-21T00:05:59.919Z,102024.16
2018-02-21T00:08:34.561Z,102032.54
2018-02-21T00:11:09.809Z,102034.62
2018-02-21T00:13:44.955Z,102035.02
2018-02-21T00:16:20.556Z,102038.14
2018-02-21T00:18:55.675Z,102034.17
2018-02-21T00:21:30.125Z,102033.37
2018-02-21T00:24:04.943Z,102028.53
2018-02-21T00:26:39.655Z,102029.89
2018-02-21T00:29:14.890Z,102030.95
2018-02-21T00:31:49.650Z,102032.19
2018-02-21T00:34:24.039Z,102025.97
2018-02-21T00:37:00.042Z,102029.88
2018-02-21T00:39:35.601Z,102028.84
2018-02-21T00:42:10.201Z,102041.84
2018-02-21T00:44:45.128Z,102045.94
2018-02-21T00:47:19.998Z,102042.20
2018-02-21T00:49:54.888Z,102037.91
2018-02-21T00:52:30.047Z,102039.40
2018-02-21T00:55:05.276Z,102038.16
2018-02-21T00:57:40.647Z,102038.28
2018-02-21T01:00:15.975Z,102038.35
2018-02-21T01:02:50.974Z,102048.63
2018-02-21T01:05:26.575Z,102044.77
2018-02-21T01:08:01.927Z,102054.16
2018-02-21T01:10:37.003Z,102052.91
2018-02-21T01:13:12.152Z,102052.06
2018-02-21T01:15:47.639Z,102054.70
2018-02-21T01:18:22.672Z,102054.28
2018-02-21T01:20:57.791Z,102048.19
2018-02-21T01:23:32.774Z,102048.16
2018-02-21T01:26:08.072Z,102045.58
2018-02-21T01:28:43.201Z,102041.61
2018-02-21T01:31:17.997Z,102039.86
2018-02-21T01:33:53.716Z,102037.23
2018-02-21T01:36:28.775Z,102032.02
2018-02-21T01:39:03.111Z,102030.34
2018-02-21T01:41:38.199Z,102029.43
2018-02-21T01:44:13.367Z,102035.20
2018-02-21T01:46:48.059Z,102043.58
2018-02-21T01:49:23.075Z,102034.38
2018-02-21T01:52:00.068Z,102041.95
2018-02-21T01:54:34.795Z,102046.87
2018-02-21T01:57:10.056Z,102045.58
2018-02-21T01:59:45.231Z,102064.06
2018-02-21T02:02:19.959Z,102075.05
2018-02-21T02:04:55.224Z,102086.89
2018-02-21T02:07:29.939Z,102093.00
2018-02-21T02:10:05.248Z,102084.16
2018-02-21T02:12:40.684Z,102081.98
2018-02-21T02:15:16.068Z,102082.55
2018-02-21T02:17:51.272Z,102077.43
2018-02-21T02:20:26.828Z,102077.94
2018-02-21T02:23:02.067Z,102077.99
2018-02-21T02:25:37.014Z,102077.20
2018-02-21T02:28:11.372Z,102091.38
2018-02-21T02:30:46.859Z,102091.88
2018-02-21T02:33:21.932Z,102097.64
2018-02-21T02:35:57.297Z,102101.61
2018-02-21T02:38:39.682Z,102101.63
2018-02-21T02:41:15.080Z,102104.29
2018-02-21T02:43:49.807Z,102097.73
2018-02-21T02:46:25.065Z,102103.50
2018-02-21T02:49:00.826Z,102114.58
2018-02-21T02:51:37.773Z,102111.48
2018-02-21T02:54:13.080Z,102113.71
2018-02-21T02:56:48.055Z,102123.78
2018-02-21T02:59:22.886Z,102132.98
2018-02-21T03:01:57.364Z,102137.73
2018-02-21T03:04:31.992Z,102132.03
2018-02-21T03:07:06.443Z,102127.31
2018-02-21T03:09:41.935Z,102125.17
2018-02-21T03:12:16.615Z,102113.73
2018-02-21T03:14:51.075Z,102121.71
2018-02-21T03:17:26.183Z,102123.55
2018-02-21T03:20:01.366Z,102126.68
2018-02-21T03:22:36.980Z,102136.39
2018-02-21T03:25:12.188Z,102132.00
2018-02-21T03:27:47.118Z,102124.09
2018-02-21T03:30:22.076Z,102120.56
2018-02-21T03:32:57.495Z,102120.19
2018-02-21T03:35:33.064Z,102122.00
2018-02-21T03:38:08.312Z,102129.05
2018-02-21T03:40:42.951Z,102128.59
2018-02-21T03:43:18.350Z,102132.51
2018-02-21T03:45:53.191Z,102130.33
2018-02-21T03:48:28.348Z,102134.28
2018-02-21T03:51:02.971Z,102125.02
2018-02-21T03:53:38.016Z,102129.39
2018-02-21T03:56:13.289Z,102135.52
2018-02-21T03:58:49.035Z,102131.09
2018-02-21T04:01:23.493Z,102135.06
2018-02-21T04:03:58.179Z,102139.09
2018-02-21T04:06:33.048Z,102144.44
2018-02-21T04:09:08.313Z,102139.14
2018-02-21T04:11:43.178Z,102136.98
2018-02-21T04:14:18.056Z,102138.34
2018-02-21T04:16:53.215Z,102123.38
2018-02-21T04:19:28.423Z,102123.94
2018-02-21T04:22:04.215Z,102132.31
2018-02-21T04:24:39.251Z,102130.10
2018-02-21T04:27:14.503Z,102123.97
2018-02-21T04:29:49.079Z,102118.77
2018-02-21T04:32:24.426Z,102118.80
2018-02-21T04:35:00.436Z,102119.70
2018-02-21T04:37:35.695Z,102128.05
2018-02-21T04:40:10.948Z,102137.27
2018-02-21T04:42:46.851Z,102133.70
2018-02-21T04:45:22.139Z,102123.14
2018-02-21T04:47:57.235Z,102117.41
2018-02-21T04:50:32.522Z,102107.19
2018-02-21T04:53:07.227Z,102111.22
2018-02-21T04:55:42.504Z,102107.32
2018-02-21T04:58:22.851Z,102104.80
2018-02-21T05:00:57.851Z,102103.16
2018-02-21T05:03:33.307Z,102116.88
2018-02-21T05:06:08.587Z,102115.55
2018-02-21T05:08:43.234Z,102127.36
2018-02-21T05:11:18.453Z,102125.99
2018-02-21T05:13:53.486Z,102120.70
2018-02-21T05:16:31.403Z,102122.95
2018-02-21T05:19:06.517Z,102121.16
2018-02-21T05:21:41.180Z,102117.62
2018-02-21T05:24:16.459Z,102113.62
2018-02-21T05:26:51.195Z,102113.16
2018-02-21T05:29:25.554Z,102108.80
2018-02-21T05:32:00.571Z,102099.99
2018-02-21T05:34:35.617Z,102108.41
2018-02-21T05:37:10.488Z,102112.44
2018-02-21T05:39:45.395Z,102117.77
2018-02-21T05:42:20.659Z,102114.78
2018-02-21T05:44:55.390Z,102116.16
2018-02-21T05:47:30.379Z,102120.19
2018-02-21T05:50:04.395Z,102126.38
2018-02-21T05:52:40.267Z,102131.67
2018-02-21T05:55:15.591Z,102134.34
2018-02-21T05:57:50.187Z,102151.50
2018-02-21T06:00:25.294Z,102153.73
2018-02-21T06:03:00.704Z,102162.98
2018-02-21T06:05:35.764Z,102177.97
2018-02-21T06:08:11.091Z,102200.86
2018-02-21T06:10:46.416Z,102199.06
2018-02-21T06:13:21.592Z,102191.08
2018-02-21T06:15:57.162Z,102191.52
2018-02-21T06:18:31.863Z,102194.58
2018-02-21T06:21:06.866Z,102209.07
2018-02-21T06:23:42.394Z,102206.02
2018-02-21T06:26:17.687Z,102209.14
2018-02-21T06:28:52.427Z,102207.41
2018-02-21T06:31:27.443Z,102207.00
2018-02-21T06:34:02.744Z,102205.23
2018-02-21T06:36:37.627Z,102210.03
2018-02-21T06:39:12.604Z,102200.78
2018-02-21T06:41:47.539Z,102208.77
2018-02-21T06:44:22.374Z,102210.11
2018-02-21T06:46:57.643Z,102201.33
2018-02-21T06:49:32.794Z,102195.65
2018-02-21T06:52:07.796Z,102193.06
2018-02-21T06:54:42.791Z,102191.34
2018-02-21T06:57:17.748Z,102188.19
2018-02-21T06:59:52.600Z,102191.47
2018-02-21T07:02:36.670Z,102202.28
2018-02-21T07:05:12.019Z,102187.98
2018-02-21T07:07:47.560Z,102183.51
2018-02-21T07:10:22.460Z,102177.23
2018-02-21T07:12:57.628Z,102164.06
2018-02-21T07:15:32.297Z,102173.76
2018-02-21T07:18:07.743Z,102175.78
2018-02-21T07:20:42.843Z,102180.11
2018-02-21T07:23:17.719Z,102175.74
2018-02-21T07:25:52.585Z,102174.89
2018-02-21T07:28:27.436Z,102166.48
2018-02-21T07:31:02.771Z,102161.98
2018-02-21T07:33:37.895Z,102165.93
2018-02-21T07:36:12.720Z,102168.06
2018-02-21T07:38:47.491Z,102157.78
2018-02-21T07:41:22.764Z,102163.94
2018-02-21T07:43:58.021Z,102159.98
2018-02-21T07:46:32.691Z,102157.38
2018-02-21T07:49:07.764Z,102157.26
2018-02-21T07:51:42.479Z,102159.19
2018-02-21T07:54:17.780Z,102167.75
2018-02-21T07:56:52.615Z,102171.53
2018-02-21T07:59:27.903Z,102172.10
2018-02-21T08:02:02.756Z,102167.02
2018-02-21T08:04:37.512Z,102172.97
2018-02-21T08:07:12.761Z,102181.09
2018-02-21T08:09:47.752Z,102186.15
2018-02-21T08:12:22.647Z,102180.64
2018-02-21T08:14:57.928Z,102191.05
2018-02-21T08:17:32.959Z,102192.22
2018-02-21T08:20:08.046Z,102202.22
2018-02-21T08:22:43.111Z,102202.41
2018-02-21T08:25:18.772Z,102203.77
2018-02-21T08:27:54.091Z,102198.94
2018-02-21T08:30:28.635Z,102208.25
2018-02-21T08:33:03.916Z,102206.89
2018-02-21T08:35:41.963Z,102203.65
2018-02-21T08:38:17.728Z,102203.31
2018-02-21T08:40:52.596Z,102205.42
2018-02-21T08:43:27.587Z,102201.70
2018-02-21T08:46:02.169Z,102195.19
2018-02-21T08:48:36.828Z,102198.64
2018-02-21T08:51:11.671Z,102198.87
2018-02-21T08:53:46.654Z,102200.02
2018-02-21T08:56:21.944Z,102200.31
2018-02-21T08:58:57.240Z,102198.94
2018-02-21T09:01:31.994Z,102195.11
2018-02-21T09:04:07.051Z,102200.67
2018-02-21T09:06:42.205Z,102204.48
2018-02-21T09:09:17.811Z,102206.87
2018-02-21T09:11:52.856Z,102214.46
2018-02-21T09:14:27.695Z,102217.14
2018-02-21T09:17:02.732Z,102216.70
2018-02-21T09:19:37.007Z,102221.88
2018-02-21T09:22:12.180Z,102226.32
2018-02-21T09:24:47.620Z,102230.31
2018-02-21T09:27:22.679Z,102232.53
2018-02-21T09:29:57.880Z,102237.73
2018-02-21T09:32:32.707Z,102235.70
2018-02-21T09:35:08.031Z,102235.47
2018-02-21T09:37:42.863Z,102231.62
2018-02-21T09:40:17.919Z,102226.01
2018-02-21T09:42:52.644Z,102231.36
2018-02-21T09:45:27.860Z,102232.77
2018-02-21T09:48:03.069Z,102233.52
2018-02-21T09:50:37.907Z,102233.98
2018-02-21T09:53:13.041Z,102234.41
2018-02-21T09:55:48.038Z,102237.44
2018-02-21T09:58:22.792Z,102234.08
2018-02-21T10:00:58.117Z,102233.50
2018-02-21T10:03:33.387Z,102225.20
2018-02-21T10:06:08.947Z,102228.71
2018-02-21T10:08:43.785Z,102226.53
2018-02-21T10:11:18.899Z,102223.31
2018-02-21T10:13:53.832Z,102224.57
2018-02-21T10:16:28.811Z,102231.06
2018-02-21T10:19:03.301Z,102220.91
2018-02-21T10:21:38.435Z,102218.50
2018-02-21T10:24:14.619Z,102221.02
2018-02-21T10:26:49.220Z,102221.41
2018-02-21T10:29:23.922Z,102218.36
2018-02-21T10:31:59.199Z,102218.93
2018-02-21T10:34:34.284Z,102212.94
2018-02-21T10:37:09.533Z,102210.02
2018-02-21T10:39:44.976Z,102204.77
2018-02-21T10:42:19.893Z,102203.95
2018-02-21T10:44:55.043Z,102202.65
2018-02-21T10:47:30.228Z,102203.42
2018-02-21T10:50:05.515Z,102202.19
2018-02-21T10:52:40.976Z,102200.53
2018-02-21T10:55:15.819Z,102199.44
2018-02-21T10:57:51.083Z,102189.56
2018-02-21T11:00:32.291Z,102185.09
2018-02-21T11:03:07.549Z,102191.99
2018-02-21T11:05:43.019Z,102187.23
2018-02-21T11:08:17.663Z,102193.42
2018-02-21T11:10:52.327Z,102183.30
2018-02-21T11:13:26.996Z,102187.77
2018-02-21T11:16:01.919Z,102191.25
2018-02-21T11:18:37.016Z,102191.84
2018-02-21T11:21:11.707Z,102188.83
2018-02-21T11:23:47.085Z,102187.52
2018-02-21T11:26:21.767Z,102189.48
2018-02-21T11:28:57.172Z,102193.27
2018-02-21T11:31:32.135Z,102188.53
2018-02-21T11:34:06.938Z,102191.28
2018-02-21T11:36:41.992Z,102184.92
2018-02-21T11:39:17.184Z,102184.20
2018-02-21T11:41:52.165Z,102188.30
2018-02-21T11:44:27.379Z,102179.46
2018-02-21T11:47:02.435Z,102180.84
2018-02-21T11:49:37.387Z,102177.57
2018-02-21T11:52:12.621Z,102180.66
2018-02-21T11:54:47.719Z,102187.13
2018-02-21T11:57:23.024Z,102185.70
2018-02-21T11:59:58.179Z,102180.75
2018-02-21T12:02:33.791Z,102181.06
2018-02-21T12:05:08.660Z,102182.45
2018-02-21T12:07:43.623Z,102183.45
2018-02-21T12:10:19.228Z,102182.10
2018-02-21T12:12:54.151Z,102172.20
2018-02-21T12:15:29.331Z,102167.59
2018-02-21T12:18:03.987Z,102178.12
2018-02-21T12:20:38.426Z,102172.48
2018-02-21T12:23:13.067Z,102173.42
2018-02-21T12:25:48.260Z,102157.45
2018-02-21T12:28:23.399Z,102168.75
2018-02-21T12:30:58.155Z,102174.07
2018-02-21T12:33:33.235Z,102170.98
2018-02-21T12:36:08.295Z,102168.25
2018-02-21T12:38:43.142Z,102166.82
2018-02-21T12:41:23.687Z,102170.44
2018-02-21T12:43:58.117Z,102163.27
2018-02-21T12:46:33.576Z,102167.42
2018-02-21T12:49:09.278Z,102163.06
2018-02-21T12:51:44.335Z,102165.84
2018-02-21T12:54:19.580Z,102161.80
2018-02-21T12:56:54.800Z,102160.31
2018-02-21T12:59:30.299Z,102157.86
2018-02-21T13:02:05.227Z,102151.11
2018-02-21T13:04:39.771Z,102154.67
2018-02-21T13:07:15.831Z,102152.04
2018-02-21T13:09:52.054Z,102147.80
2018-02-21T13:12:26.690Z,102158.63
2018-02-21T13:15:01.799Z,102151.38
2018-02-21T13:17:36.744Z,102150.91
2018-02-21T13:20:11.325Z,102149.58
2018-02-21T13:22:46.599Z,102145.94
2018-02-21T13:25:21.779Z,102148.87
2018-02-21T13:27:56.829Z,102144.23
2018-02-21T13:30:31.927Z,102138.37
2018-02-21T13:33:07.179Z,102133.33
2018-02-21T13:35:42.155Z,102144.08
2018-02-21T13:38:17.635Z,102133.53
2018-02-21T13:40:52.615Z,102130.95
2018-02-21T13:43:27.559Z,102122.98
2018-02-21T13:46:02.007Z,102123.64
2018-02-21T13:48:36.714Z,102129.41
2018-02-21T13:51:12.363Z,102124.98
2018-02-21T13:53:47.183Z,102125.92
2018-02-21T13:56:21.687Z,102123.62
2018-02-21T13:58:56.439Z,102117.45
2018-02-21T14:01:31.748Z,102113.59
2018-02-21T14:04:07.591Z,102105.42
2018-02-21T14:06:42.629Z,102106.38
2018-02-21T14:09:17.764Z,102111.63
2018-02-21T14:11:52.674Z,102107.73
2018-02-21T14:14:27.938Z,102105.42
2018-02-21T14:17:02.751Z,102103.24
2018-02-21T14:19:37.451Z,102096.90
2018-02-21T14:22:12.535Z,102094.03
2018-02-21T14:24:47.604Z,102094.52
2018-02-21T14:27:23.459Z,102093.10
2018-02-21T14:29:58.716Z,102092.80
2018-02-21T14:32:34.167Z,102091.05
2018-02-21T14:35:09.428Z,102091.55
2018-02-21T14:37:44.691Z,102097.06
2018-02-21T14:40:19.598Z,102089.33
2018-02-21T14:42:53.967Z,102086.84
2018-02-21T14:45:28.579Z,102090.98
2018-02-21T14:48:03.540Z,102089.86
2018-02-21T14:50:38.575Z,102085.28
2018-02-21T14:53:13.764Z,102085.59
2018-02-21T14:55:48.803Z,102088.42
2018-02-21T14:58:23.995Z,102091.92
2018-02-21T15:00:58.685Z,102091.16
2018-02-21T15:03:34.495Z,102092.02
2018-02-21T15:06:09.859Z,102090.05
2018-02-21T15:08:44.599Z,102093.83
2018-02-21T15:11:19.635Z,102091.17
2018-02-21T15:13:54.711Z,102081.98
2018-02-21T15:16:29.960Z,102078.69
2018-02-21T15:19:05.653Z,102085.04
2018-02-21T15:21:40.626Z,102081.33
2018-02-21T15:24:15.816Z,102083.72
2018-02-21T15:26:50.874Z,102088.44
2018-02-21T15:29:26.444Z,102085.82
2018-02-21T15:32:01.933Z,102082.58
2018-02-21T15:34:36.984Z,102082.34
2018-02-21T15:37:12.032Z,102084.38
2018-02-21T15:39:47.606Z,102082.08
2018-02-21T15:42:22.571Z,102082.58
2018-02-21T15:44:57.732Z,102082.41
2018-02-21T15:47:33.271Z,102084.69
2018-02-21T15:50:08.880Z,102087.28
2018-02-21T15:52:43.835Z,102084.23
2018-02-21T15:55:18.908Z,102082.65
2018-02-21T15:57:53.608Z,102081.14
2018-02-21T16:00:28.711Z,102077.63
2018-02-21T16:03:04.003Z,102085.34
2018-02-21T16:05:38.948Z,102084.94
2018-02-21T16:08:14.008Z,102082.67
2018-02-21T16:10:48.860Z,102087.80
2018-02-21T16:13:23.871Z,102083.87
2018-02-21T16:15:58.943Z,102081.86
2018-02-21T16:18:34.252Z,102079.94
2018-02-21T16:21:09.976Z,102084.02
2018-02-21T16:23:44.315Z,102087.75
2018-02-21T16:26:19.779Z,102086.66
2018-02-21T16:28:54.796Z,102091.89
2018-02-21T16:31:29.840Z,102092.81
2018-02-21T16:34:04.603Z,102091.03
2018-02-21T16:36:39.795Z,102097.72
2018-02-21T16:39:15.039Z,102091.89
2018-02-21T16:41:49.844Z,102099.54
2018-02-21T16:44:24.867Z,102098.86
2018-02-21T16:46:59.960Z,102098.63
2018-02-21T16:49:35.095Z,102105.42
2018-02-21T16:52:10.335Z,102107.52
2018-02-21T16:54:45.667Z,102109.00
2018-02-21T16:57:20.784Z,102107.80
2018-02-21T16:59:55.799Z,102112.09
2018-02-21T17:02:30.747Z,102121.00
2018-02-21T17:05:05.920Z,102106.83
2018-02-21T17:07:41.001Z,102120.08
2018-02-21T17:10:16.731Z,102118.59
2018-02-21T17:12:51.660Z,102123.84
2018-02-21T17:15:26.747Z,102121.75
2018-02-21T17:18:02.206Z,102120.06
2018-02-21T17:20:36.827Z,102127.51
2018-02-21T17:23:12.134Z,102125.76
2018-02-21T17:25:46.939Z,102127.16
2018-02-21T17:28:21.902Z,102119.74
2018-02-21T17:30:56.250Z,102132.30
2018-02-21T17:33:30.802Z,102131.54
2018-02-21T17:36:06.051Z,102124.38
2018-02-21T17:38:41.327Z,102130.95
2018-02-21T17:41:21.975Z,102137.64
2018-02-21T17:43:57.863Z,102137.82
2018-02-21T17:46:32.253Z,102144.28
2018-02-21T17:49:07.892Z,102150.89
2018-02-21T17:51:43.076Z,102150.95
2018-02-21T17:54:17.420Z,102150.39
2018-02-21T17:56:52.878Z,102156.12
2018-02-21T17:59:27.963Z,102154.67
2018-02-21T18:02:03.135Z,102158.70
2018-02-21T18:04:38.028Z,102154.52
2018-02-21T18:07:13.207Z,102152.08
2018-02-21T18:09:48.033Z,102148.96
2018-02-21T18:12:23.052Z,102148.04
2018-02-21T18:14:57.987Z,102152.47
2018-02-21T18:17:32.339Z,102152.19
2018-02-21T18:20:08.152Z,102146.91
2018-02-21T18:22:43.401Z,102148.86
2018-02-21T18:25:18.519Z,102154.73
2018-02-21T18:27:53.047Z,102155.64
2018-02-21T18:30:27.381Z,102150.72
2018-02-21T18:33:02.397Z,102149.53
2018-02-21T18:35:37.187Z,102157.19
2018-02-21T18:38:12.359Z,102158.30
2018-02-21T18:40:47.219Z,102159.91
2018-02-21T18:43:22.279Z,102158.25
2018-02-21T18:45:57.015Z,102165.16
2018-02-21T18:48:32.167Z,102165.29
2018-02-21T18:51:07.260Z,102169.86
2018-02-21T18:53:41.616Z,102165.58
2018-02-21T18:56:16.907Z,102169.15
2018-02-21T18:58:52.099Z,102164.27
2018-02-21T19:01:27.170Z,102167.63
2018-02-21T19:04:02.555Z,102171.21
2018-02-21T19:06:39.023Z,102170.77
2018-02-21T19:09:14.327Z,102163.37
2018-02-21T19:11:49.226Z,102177.97
2018-02-21T19:14:24.244Z,102170.89
2018-02-21T19:16:59.203Z,102175.82
2018-02-21T19:19:34.563Z,102179.86
2018-02-21T19:22:10.008Z,102171.98
2018-02-21T19:24:45.165Z,102182.83
2018-02-21T19:27:20.843Z,102174.54
2018-02-21T19:29:55.480Z,102177.30
2018-02-21T19:32:30.124Z,102183.53
2018-02-21T19:35:04.660Z,102181.88
2018-02-21T19:37:39.284Z,102183.17
2018-02-21T19:40:14.278Z,102190.83
2018-02-21T19:42:49.416Z,102195.36
2018-02-21T19:45:24.107Z,102194.54
2018-02-21T19:47:59.337Z,102203.03
2018-02-21T19:50:34.204Z,102197.56
2018-02-21T19:53:09.485Z,102188.16
2018-02-21T19:55:45.183Z,102193.47
2018-02-21T19:58:20.398Z,102195.30
2018-02-21T20:00:55.330Z,102198.81
2018-02-21T20:03:30.926Z,102199.75
2018-02-21T20:06:05.560Z,102197.14
2018-02-21T20:08:40.637Z,102201.57
2018-02-21T20:11:15.041Z,102196.77
2018-02-21T20:13:50.164Z,102207.88
2018-02-21T20:16:25.255Z,102204.80
2018-02-21T20:19:00.435Z,102208.21
2018-02-21T20:21:35.298Z,102210.23
2018-02-21T20:24:10.053Z,102215.42
2018-02-21T20:26:44.599Z,102211.80
2018-02-21T20:29:19.563Z,102212.15
2018-02-21T20:31:55.248Z,102213.36
2018-02-21T20:34:30.336Z,102210.09
2018-02-21T20:37:04.898Z,102213.15
2018-02-21T20:39:40.343Z,102217.31
2018-02-21T20:42:15.228Z,102213.43
2018-02-21T20:44:50.268Z,102217.58
2018-02-21T20:47:24.761Z,102214.52
2018-02-21T20:49:59.937Z,102222.50
2018-02-21T20:52:34.565Z,102216.63
2018-02-21T20:55:09.347Z,102215.12
2018-02-21T20:57:43.803Z,102221.69
2018-02-21T21:00:18.391Z,102215.47
2018-02-21T21:02:53.571Z,102213.73
2018-02-21T21:05:28.339Z,102212.09
2018-02-21T21:08:03.449Z,102207.81
2018-02-21T21:10:37.839Z,102222.73
2018-02-21T21:13:12.813Z,102222.83
2018-02-21T21:15:47.514Z,102217.73
2018-02-21T21:18:22.659Z,102222.70
2018-02-21T21:20:57.962Z,102221.53
2018-02-21T21:23:33.483Z,102225.15
2018-02-21T21:26:08.657Z,102219.87
2018-02-21T21:28:43.488Z,102214.45
2018-02-21T21:31:18.755Z,102215.23
2018-02-21T21:33:53.500Z,102217.05
2018-02-21T21:36:28.660Z,102222.80
2018-02-21T21:39:03.927Z,102223.28
2018-02-21T21:41:38.565Z,102222.90
2018-02-21T21:44:12.867Z,102225.02
2018-02-21T21:46:47.923Z,102219.28
2018-02-21T21:49:22.555Z,102217.70
2018-02-21T21:51:57.611Z,102219.52
2018-02-21T21:54:32.507Z,102219.17
2018-02-21T21:57:07.787Z,102222.52
2018-02-21T21:59:42.735Z,102226.44
2018-02-21T22:02:17.865Z,102222.03
2018-02-21T22:04:53.155Z,102220.83
2018-02-21T22:07:28.076Z,102224.43
2018-02-21T22:10:03.623Z,102223.86
2018-02-21T22:12:38.787Z,102215.14
2018-02-21T22:15:13.656Z,102221.11
2018-02-21T22:17:48.863Z,102223.22
2018-02-21T22:20:23.820Z,102221.94
2018-02-21T22:22:58.823Z,102217.13
2018-02-21T22:25:33.919Z,102221.98
2018-02-21T22:28:09.484Z,102224.59
2018-02-21T22:30:44.612Z,102227.61
2018-02-21T22:33:19.601Z,102227.56
2018-02-21T22:35:54.583Z,102219.95
2018-02-21T22:38:29.760Z,102223.37
2018-02-21T22:41:04.000Z,102222.03
2018-02-21T22:43:38.696Z,102227.38
2018-02-21T22:46:13.864Z,102232.42
2018-02-21T22:48:48.888Z,102224.99
2018-02-21T22:51:23.348Z,102227.20
2018-02-21T22:53:58.636Z,102231.25
2018-02-21T22:56:33.671Z,102231.24
2018-02-21T22:59:09.799Z,102232.63
2018-02-21T23:01:44.947Z,102231.30
2018-02-21T23:04:19.848Z,102229.63
2018-02-21T23:06:54.631Z,102230.64
2018-02-21T23:09:29.687Z,102239.73
2018-02-21T23:12:04.167Z,102232.66
2018-02-21T23:14:39.711Z,102231.28
2018-02-21T23:17:14.677Z,102230.83
2018-02-21T23:19:49.724Z,102234.02
2018-02-21T23:22:24.687Z,102231.47
2018-02-21T23:24:59.691Z,102233.78
2018-02-21T23:27:35.040Z,102232.54
2018-02-21T23:30:09.675Z,102228.61
2018-02-21T23:32:44.911Z,102224.23
2018-02-21T23:35:20.564Z,102223.30
2018-02-21T23:37:55.848Z,102233.52
2018-02-21T23:40:31.049Z,102233.61
2018-02-21T23:43:06.268Z,102230.61
2018-02-21T23:45:40.827Z,102232.77
2018-02-21T23:48:16.019Z,102227.05
2018-02-21T23:50:51.284Z,102226.30
2018-02-21T23:53:26.640Z,102229.09
2018-02-21T23:56:03.046Z,102231.71
2018-02-21T23:58:38.039Z,102226.73
